createdAt,value
2019-03-04T00:00:15.795Z,10.40
2019-03-04T00:01:15.795Z,10.43
2019-03-04T00:02:15.786Z,10.47
2019-03-04T00:03:15.789Z,10.44
2019-03-04T00:04:15.814Z,10.43
2019-03-04T00:05:15.821Z,10.37
2019-03-04T00:06:15.783Z,10.39
2019-03-04T00:07:15.790Z,10.33
2019-03-04T00:08:15.782Z,10.39
2019-03-04T00:09:15.812Z,10.37
2019-03-04T00:10:15.783Z,10.39
2019-03-04T00:11:15.778Z,10.33
2019-03-04T00:12:15.782Z,10.33
2019-03-04T00:13:15.775Z,10.25
2019-03-04T00:14:15.807Z,10.30
2019-03-04T00:15:15.803Z,10.34
2019-03-04T00:16:15.807Z,10.34
2019-03-04T00:17:15.783Z,10.37
2019-03-04T00:18:15.771Z,10.28
2019-03-04T00:19:15.799Z,10.32
2019-03-04T00:20:15.772Z,10.42
2019-03-04T00:21:15.767Z,10.28
2019-03-04T00:22:15.761Z,10.26
2019-03-04T00:23:15.769Z,10.32
2019-03-04T00:24:15.796Z,10.19
2019-03-04T00:25:15.759Z,10.22
2019-03-04T00:26:15.759Z,10.14
2019-03-04T00:27:15.759Z,10.21
2019-03-04T00:28:15.847Z,10.24
2019-03-04T00:29:15.779Z,10.18
2019-03-04T00:30:15.751Z,10.06
2019-03-04T00:31:15.752Z,10.07
2019-03-04T00:32:15.749Z,10.03
2019-03-04T00:33:15.749Z,10.03
2019-03-04T00:34:15.784Z,10.10
2019-03-04T00:35:15.747Z,10.04
2019-03-04T00:36:15.739Z,9.99
2019-03-04T00:37:15.738Z,10.04
2019-03-04T00:38:15.743Z,10.07
2019-03-04T00:39:15.739Z,10.19
2019-03-04T00:40:15.761Z,10.15
2019-03-04T00:41:15.737Z,10.14
2019-03-04T00:42:15.736Z,10.14
2019-03-04T00:43:15.736Z,10.21
2019-03-04T00:44:15.731Z,10.19
2019-03-04T00:45:15.756Z,10.14
2019-03-04T00:46:15.752Z,10.21
2019-03-04T00:47:15.728Z,10.09
2019-03-04T00:48:15.728Z,9.94
2019-03-04T00:49:15.728Z,9.86
2019-03-04T00:50:15.753Z,9.97
2019-03-04T00:51:15.723Z,10.00
2019-03-04T00:52:15.720Z,9.96
2019-03-04T00:53:15.715Z,9.96
2019-03-04T00:54:15.715Z,10.00
2019-03-04T00:55:15.739Z,10.07
2019-03-04T00:56:15.722Z,10.14
2019-03-04T00:57:15.704Z,10.01
2019-03-04T00:58:15.706Z,10.04
2019-03-04T00:59:15.731Z,10.09
2019-03-04T01:00:15.732Z,10.04
2019-03-04T01:01:15.704Z,10.17
2019-03-04T01:02:15.700Z,10.07
2019-03-04T01:03:15.699Z,10.06
2019-03-04T01:04:15.698Z,10.03
2019-03-04T01:05:15.725Z,10.06
2019-03-04T01:06:15.870Z,9.96
2019-03-04T01:07:15.696Z,10.07
2019-03-04T01:08:15.693Z,10.06
2019-03-04T01:09:15.685Z,10.06
2019-03-04T01:10:15.749Z,10.10
2019-03-04T01:11:15.692Z,9.94
2019-03-04T01:12:15.686Z,10.06
2019-03-04T01:13:15.684Z,10.03
2019-03-04T01:14:15.681Z,10.18
2019-03-04T01:15:15.707Z,10.15
2019-03-04T01:16:15.675Z,10.15
2019-03-04T01:17:15.677Z,10.22
2019-03-04T01:18:15.678Z,10.18
2019-03-04T01:19:15.689Z,10.17
2019-03-04T01:20:15.720Z,10.24
2019-03-04T01:21:15.670Z,10.17
2019-03-04T01:22:15.668Z,10.04
2019-03-04T01:23:15.666Z,10.03
2019-03-04T01:24:15.664Z,10.06
2019-03-04T01:25:15.699Z,10.09
2019-03-04T01:26:15.656Z,10.18
2019-03-04T01:27:15.663Z,10.12
2019-03-04T01:28:15.658Z,10.17
2019-03-04T01:29:15.685Z,10.19
2019-03-04T01:30:15.659Z,10.06
2019-03-04T01:31:15.678Z,10.06
2019-03-04T01:32:15.653Z,10.00
2019-03-04T01:33:15.649Z,10.07
2019-03-04T01:34:15.649Z,10.04
2019-03-04T01:35:15.688Z,10.14
2019-03-04T01:36:15.673Z,10.10
2019-03-04T01:37:15.640Z,10.14
2019-03-04T01:38:15.643Z,10.18
2019-03-04T01:39:15.642Z,10.15
2019-03-04T01:40:15.637Z,10.32
2019-03-04T01:41:15.665Z,10.42
2019-03-04T01:42:15.661Z,10.33
2019-03-04T01:43:15.638Z,10.42
2019-03-04T01:44:15.629Z,10.43
2019-03-04T01:45:15.635Z,10.33
2019-03-04T01:46:16.956Z,10.36
2019-03-04T01:47:15.625Z,10.33
2019-03-04T01:48:15.651Z,10.24
2019-03-04T01:49:15.629Z,10.30
2019-03-04T01:50:15.622Z,10.25
2019-03-04T01:51:15.660Z,10.32
2019-03-04T01:52:15.658Z,10.43
2019-03-04T01:53:15.620Z,10.39
2019-03-04T01:54:15.618Z,10.42
2019-03-04T01:55:15.614Z,10.26
2019-03-04T01:56:15.638Z,10.26
2019-03-04T01:57:15.610Z,10.25
2019-03-04T01:58:15.609Z,10.18
2019-03-04T01:59:15.611Z,10.30
2019-03-04T02:00:15.611Z,10.24
2019-03-04T02:01:15.633Z,10.28
2019-03-04T02:02:15.606Z,10.33
2019-03-04T02:03:15.602Z,10.30
2019-03-04T02:04:15.598Z,10.28
2019-03-04T02:05:15.603Z,10.24
2019-03-04T02:06:15.625Z,10.24
2019-03-04T02:07:15.590Z,10.21
2019-03-04T02:08:15.593Z,10.09
2019-03-04T02:09:15.591Z,10.06
2019-03-04T02:10:15.590Z,10.10
2019-03-04T02:11:15.622Z,10.00
2019-03-04T02:12:15.587Z,10.00
2019-03-04T02:13:15.585Z,9.89
2019-03-04T02:14:15.582Z,9.78
2019-03-04T02:15:15.578Z,9.89
2019-03-04T02:16:15.613Z,10.09
2019-03-04T02:17:15.591Z,10.04
2019-03-04T02:18:15.581Z,10.07
2019-03-04T02:19:15.582Z,9.96
2019-03-04T02:20:15.574Z,9.97
2019-03-04T02:21:15.609Z,9.89
2019-03-04T02:22:15.575Z,9.81
2019-03-04T02:23:15.567Z,9.76
2019-03-04T02:24:15.567Z,9.78
2019-03-04T02:25:15.572Z,9.79
2019-03-04T02:26:15.594Z,9.79
2019-03-04T02:27:15.563Z,9.63
2019-03-04T02:28:15.558Z,9.57
2019-03-04T02:29:15.559Z,9.63
2019-03-04T02:30:15.556Z,9.56
2019-03-04T02:31:15.588Z,9.56
2019-03-04T02:32:15.555Z,9.70
2019-03-04T02:33:15.548Z,9.66
2019-03-04T02:34:15.551Z,9.61
2019-03-04T02:35:15.550Z,9.58
2019-03-04T02:36:15.570Z,9.40
2019-03-04T02:37:15.543Z,9.48
2019-03-04T02:38:15.546Z,9.46
2019-03-04T02:39:15.539Z,9.46
2019-03-04T02:40:15.544Z,9.60
2019-03-04T02:41:15.566Z,9.73
2019-03-04T02:42:15.559Z,9.75
2019-03-04T02:43:15.540Z,9.66
2019-03-04T02:44:15.532Z,9.66
2019-03-04T02:45:15.526Z,9.56
2019-03-04T02:46:15.556Z,9.61
2019-03-04T02:47:15.527Z,9.60
2019-03-04T02:48:15.546Z,9.50
2019-03-04T02:49:15.541Z,9.50
2019-03-04T02:50:15.519Z,9.49
2019-03-04T02:51:15.532Z,9.57
2019-03-04T02:52:15.544Z,9.60
2019-03-04T02:53:15.525Z,9.57
2019-03-04T02:54:15.535Z,9.64
2019-03-04T02:55:15.512Z,9.66
2019-03-04T02:56:15.506Z,9.57
2019-03-04T02:57:15.536Z,9.48
2019-03-04T02:58:15.507Z,9.40
2019-03-04T02:59:15.504Z,9.46
2019-03-04T03:00:15.495Z,9.38
2019-03-04T03:01:15.497Z,9.39
2019-03-04T03:02:15.531Z,9.46
2019-03-04T03:03:15.535Z,9.56
2019-03-04T03:04:15.495Z,9.58
2019-03-04T03:05:15.487Z,9.58
2019-03-04T03:06:15.485Z,9.49
2019-03-04T03:07:15.516Z,9.60
2019-03-04T03:08:16.344Z,9.66
2019-03-04T03:09:15.488Z,9.73
2019-03-04T03:10:15.475Z,9.88
2019-03-04T03:11:15.485Z,9.97
2019-03-04T03:12:15.503Z,9.93
2019-03-04T03:13:15.481Z,10.06
2019-03-04T03:14:15.470Z,10.01
2019-03-04T03:15:15.508Z,10.19
2019-03-04T03:16:15.469Z,10.21
2019-03-04T03:17:15.495Z,10.10
2019-03-04T03:18:15.463Z,10.17
2019-03-04T03:19:15.465Z,10.25
2019-03-04T03:20:15.470Z,10.32
2019-03-04T03:21:15.471Z,10.36
2019-03-04T03:22:15.492Z,10.30
2019-03-04T03:23:15.455Z,10.46
2019-03-04T03:24:15.448Z,10.39
2019-03-04T03:25:15.540Z,10.24
2019-03-04T03:26:15.454Z,10.26
2019-03-04T03:27:15.532Z,10.32
2019-03-04T03:28:15.456Z,10.43
2019-03-04T03:29:15.453Z,10.40
2019-03-04T03:30:15.445Z,10.40
2019-03-04T03:31:15.446Z,10.34
2019-03-04T03:32:15.536Z,10.39
2019-03-04T03:33:15.442Z,10.37
2019-03-04T03:34:15.448Z,10.37
2019-03-04T03:35:15.446Z,10.39
2019-03-04T03:36:15.437Z,10.43
2019-03-04T03:37:15.464Z,10.30
2019-03-04T03:38:15.433Z,10.19
2019-03-04T03:39:15.436Z,10.19
2019-03-04T03:40:15.431Z,10.26
2019-03-04T03:41:15.425Z,10.33
2019-03-04T03:42:15.458Z,10.24
2019-03-04T03:43:15.455Z,10.15
2019-03-04T03:44:15.424Z,10.26
2019-03-04T03:45:15.418Z,10.33
2019-03-04T03:46:15.423Z,10.39
2019-03-04T03:47:15.455Z,10.39
2019-03-04T03:48:15.425Z,10.40
2019-03-04T03:49:15.412Z,10.37
2019-03-04T03:50:15.412Z,10.26
2019-03-04T03:51:15.411Z,10.33
2019-03-04T03:52:15.437Z,10.37
2019-03-04T03:53:15.438Z,10.32
2019-03-04T03:54:15.404Z,10.32
2019-03-04T03:55:15.412Z,10.22
2019-03-04T03:56:15.403Z,10.25
2019-03-04T03:57:15.430Z,10.24
2019-03-04T03:58:15.405Z,10.24
2019-03-04T03:59:15.406Z,10.19
2019-03-04T04:00:15.402Z,10.28
2019-03-04T04:01:15.393Z,10.21
2019-03-04T04:02:15.392Z,10.19
2019-03-04T04:03:15.428Z,10.24
2019-03-04T04:04:15.392Z,10.21
2019-03-04T04:05:15.388Z,10.26
2019-03-04T04:06:15.384Z,10.25
2019-03-04T04:07:15.417Z,10.21
2019-03-04T04:08:15.493Z,10.22
2019-03-04T04:09:15.388Z,10.28
2019-03-04T04:10:15.382Z,10.18
2019-03-04T04:11:15.373Z,10.18
2019-03-04T04:12:15.376Z,10.21
2019-03-04T04:13:15.402Z,10.32
2019-03-04T04:14:15.373Z,10.28
2019-03-04T04:15:15.370Z,10.18
2019-03-04T04:16:15.389Z,10.19
2019-03-04T04:17:15.373Z,10.14
2019-03-04T04:18:15.414Z,10.21
2019-03-04T04:19:15.371Z,10.25
2019-03-04T04:20:15.370Z,10.19
2019-03-04T04:21:15.361Z,10.39
2019-03-04T04:22:15.398Z,10.39
2019-03-04T04:23:15.390Z,10.43
2019-03-04T04:24:15.357Z,10.43
2019-03-04T04:25:15.353Z,10.32
2019-03-04T04:26:15.354Z,10.21
2019-03-04T04:27:15.354Z,10.37
2019-03-04T04:28:15.384Z,10.25
2019-03-04T04:29:15.348Z,10.28
2019-03-04T04:30:15.353Z,10.19
2019-03-04T04:31:15.350Z,10.17
2019-03-04T04:32:15.342Z,10.18
2019-03-04T04:33:15.377Z,10.21
2019-03-04T04:34:15.376Z,10.15
2019-03-04T04:35:15.338Z,10.17
2019-03-04T04:36:15.343Z,10.09
2019-03-04T04:37:15.340Z,10.25
2019-03-04T04:38:15.366Z,10.40
2019-03-04T04:39:15.337Z,10.25
2019-03-04T04:40:15.332Z,10.37
2019-03-04T04:41:15.336Z,10.40
2019-03-04T04:42:15.329Z,10.43
2019-03-04T04:43:15.363Z,10.33
2019-03-04T04:44:15.325Z,10.26
2019-03-04T04:45:15.325Z,10.21
2019-03-04T04:46:15.329Z,10.14
2019-03-04T04:47:15.322Z,10.07
2019-03-04T04:48:15.351Z,10.03
2019-03-04T04:49:15.327Z,10.18
2019-03-04T04:50:15.313Z,10.32
2019-03-04T04:51:15.310Z,10.25
2019-03-04T04:52:15.316Z,10.37
2019-03-04T04:53:15.346Z,10.30
2019-03-04T04:54:15.314Z,10.39
2019-03-04T04:55:15.310Z,10.33
2019-03-04T04:56:15.306Z,10.26
2019-03-04T04:57:15.305Z,10.28
2019-03-04T04:58:15.330Z,10.24
2019-03-04T04:59:15.309Z,10.43
2019-03-04T05:00:15.304Z,10.44
2019-03-04T05:01:15.851Z,10.42
2019-03-04T05:02:15.303Z,10.39
2019-03-04T05:03:15.326Z,10.43
2019-03-04T05:04:15.298Z,10.46
2019-03-04T05:05:15.297Z,10.43
2019-03-04T05:06:15.292Z,10.44
2019-03-04T05:07:15.286Z,10.47
2019-03-04T05:08:15.326Z,10.53
2019-03-04T05:09:15.339Z,10.55
2019-03-04T05:10:15.289Z,10.44
2019-03-04T05:11:15.298Z,10.53
2019-03-04T05:12:15.285Z,10.47
2019-03-04T05:13:15.311Z,10.51
2019-03-04T05:14:15.286Z,10.53
2019-03-04T05:15:15.310Z,10.55
2019-03-04T05:16:15.279Z,10.58
2019-03-04T05:17:15.287Z,10.68
2019-03-04T05:18:15.306Z,10.62
2019-03-04T05:19:15.276Z,10.56
2019-03-04T05:20:15.271Z,10.55
2019-03-04T05:21:15.299Z,10.47
2019-03-04T05:22:15.270Z,10.53
2019-03-04T05:23:15.301Z,10.55
2019-03-04T05:24:15.268Z,10.63
2019-03-04T05:25:15.267Z,10.66
2019-03-04T05:26:15.262Z,10.73
2019-03-04T05:27:15.262Z,10.86
2019-03-04T05:28:15.264Z,10.84
2019-03-04T05:29:15.288Z,10.89
2019-03-04T05:30:15.254Z,10.96
2019-03-04T05:31:15.269Z,10.96
2019-03-04T05:32:15.286Z,10.81
2019-03-04T05:33:15.254Z,10.84
2019-03-04T05:34:15.279Z,11.01
2019-03-04T05:35:15.259Z,11.02
2019-03-04T05:36:15.254Z,10.92
2019-03-04T05:37:15.252Z,10.92
2019-03-04T05:38:15.252Z,10.95
2019-03-04T05:39:15.276Z,11.07
2019-03-04T05:40:15.244Z,11.03
2019-03-04T05:41:15.353Z,11.09
2019-03-04T05:42:15.246Z,11.09
2019-03-04T05:43:15.239Z,11.21
2019-03-04T05:44:15.277Z,11.20
2019-03-04T05:45:15.239Z,11.11
2019-03-04T05:46:15.239Z,11.20
2019-03-04T05:47:15.239Z,11.36
2019-03-04T05:48:15.243Z,11.28
2019-03-04T05:49:15.263Z,11.29
2019-03-04T05:50:15.258Z,11.41
2019-03-04T05:51:15.233Z,11.32
2019-03-04T05:52:15.228Z,11.50
2019-03-04T05:53:15.231Z,11.49
2019-03-04T05:54:15.261Z,11.52
2019-03-04T05:55:15.227Z,11.59
2019-03-04T05:56:15.227Z,11.56
2019-03-04T05:57:15.227Z,11.52
2019-03-04T05:58:15.244Z,11.68
2019-03-04T05:59:19.813Z,11.71
2019-03-04T06:00:15.251Z,11.80
2019-03-04T06:01:16.837Z,11.86
2019-03-04T06:02:16.410Z,11.83
2019-03-04T06:03:15.219Z,11.78
2019-03-04T06:04:16.987Z,11.78
2019-03-04T06:05:15.221Z,11.78
2019-03-04T06:06:15.219Z,11.68
2019-03-04T06:07:15.213Z,11.70
2019-03-04T06:08:15.219Z,11.72
2019-03-04T06:09:15.248Z,11.54
2019-03-04T06:10:15.216Z,11.62
2019-03-04T06:11:15.212Z,11.64
2019-03-04T06:12:15.208Z,11.67
2019-03-04T06:13:15.211Z,11.62
2019-03-04T06:14:15.234Z,11.64
2019-03-04T06:15:15.241Z,11.62
2019-03-04T06:16:15.260Z,11.52
2019-03-04T06:17:15.208Z,11.57
2019-03-04T06:18:15.445Z,11.53
2019-03-04T06:19:15.208Z,11.52
2019-03-04T06:20:15.240Z,11.47
2019-03-04T06:21:15.203Z,11.50
2019-03-04T06:22:15.236Z,11.36
2019-03-04T06:23:15.235Z,11.43
2019-03-04T06:24:15.208Z,11.46
2019-03-04T06:25:15.237Z,11.46
2019-03-04T06:26:15.213Z,11.46
2019-03-04T06:27:15.200Z,11.49
2019-03-04T06:28:16.988Z,11.53
2019-03-04T06:29:15.199Z,11.49
2019-03-04T06:30:15.230Z,11.47
2019-03-04T06:31:15.203Z,11.38
2019-03-04T06:32:15.201Z,11.38
2019-03-04T06:33:15.197Z,11.41
2019-03-04T06:34:15.199Z,11.35
2019-03-04T06:35:15.225Z,11.39
2019-03-04T06:36:15.200Z,11.31
2019-03-04T06:37:15.202Z,11.24
2019-03-04T06:38:15.192Z,11.28
2019-03-04T06:39:15.192Z,11.21
2019-03-04T06:40:15.221Z,11.29
2019-03-04T06:41:15.200Z,11.27
2019-03-04T06:42:15.196Z,11.25
2019-03-04T06:43:15.195Z,11.20
2019-03-04T06:44:15.185Z,11.28
2019-03-04T06:45:15.216Z,11.25
2019-03-04T06:46:15.189Z,11.27
2019-03-04T06:47:15.190Z,11.24
2019-03-04T06:48:15.194Z,11.28
2019-03-04T06:49:15.189Z,11.27
2019-03-04T06:50:15.211Z,11.27
2019-03-04T06:51:15.184Z,11.24
2019-03-04T06:52:15.209Z,11.25
2019-03-04T06:53:15.185Z,11.20
2019-03-04T06:54:15.181Z,11.28
2019-03-04T06:55:15.216Z,11.29
2019-03-04T06:56:15.181Z,11.24
2019-03-04T06:57:15.177Z,11.25
2019-03-04T06:58:15.210Z,11.21
2019-03-04T06:59:15.185Z,11.27
2019-03-04T07:00:15.206Z,11.34
2019-03-04T07:01:15.182Z,11.31
2019-03-04T07:02:15.174Z,11.21
2019-03-04T07:03:15.178Z,11.20
2019-03-04T07:04:15.177Z,11.20
2019-03-04T07:05:15.189Z,11.27
2019-03-04T07:06:15.750Z,11.25
2019-03-04T07:07:15.173Z,11.38
2019-03-04T07:08:15.170Z,11.41
2019-03-04T07:09:15.175Z,11.46
2019-03-04T07:10:15.183Z,11.46
2019-03-04T07:11:15.203Z,11.44
2019-03-04T07:12:15.204Z,11.49
2019-03-04T07:13:15.170Z,11.50
2019-03-04T07:14:15.171Z,11.44
2019-03-04T07:15:15.170Z,11.47
2019-03-04T07:16:15.194Z,11.52
2019-03-04T07:17:15.167Z,11.53
2019-03-04T07:18:15.165Z,11.64
2019-03-04T07:19:15.164Z,11.59
2019-03-04T07:20:15.165Z,11.64
2019-03-04T07:21:15.202Z,11.71
2019-03-04T07:22:15.166Z,11.75
2019-03-04T07:23:15.170Z,11.74
2019-03-04T07:24:15.166Z,11.65
2019-03-04T07:25:15.160Z,11.62
2019-03-04T07:26:15.205Z,11.65
2019-03-04T07:27:15.162Z,11.75
2019-03-04T07:28:15.165Z,11.65
2019-03-04T07:29:15.220Z,11.72
2019-03-04T07:30:15.159Z,11.68
2019-03-04T07:31:15.188Z,11.61
2019-03-04T07:32:15.158Z,11.59
2019-03-04T07:33:15.158Z,11.65
2019-03-04T07:34:15.161Z,11.74
2019-03-04T07:35:15.159Z,11.70
2019-03-04T07:36:15.185Z,11.68
2019-03-04T07:37:15.150Z,11.61
2019-03-04T07:38:15.152Z,11.68
2019-03-04T07:39:15.158Z,11.59
2019-03-04T07:40:16.427Z,11.70
2019-03-04T07:41:15.159Z,12.01
2019-03-04T07:42:15.186Z,12.41
2019-03-04T07:43:15.160Z,12.57
2019-03-04T07:44:15.155Z,12.74
2019-03-04T07:45:15.153Z,12.82
2019-03-04T07:46:15.155Z,12.88
2019-03-04T07:47:15.187Z,13.14
2019-03-04T07:48:15.207Z,12.95
2019-03-04T07:49:15.156Z,13.07
2019-03-04T07:50:15.155Z,12.92
2019-03-04T07:51:15.158Z,12.87
2019-03-04T07:52:15.185Z,13.03
2019-03-04T07:53:15.155Z,13.15
2019-03-04T07:54:15.191Z,13.30
2019-03-04T07:55:15.161Z,13.61
2019-03-04T07:56:15.171Z,13.47
2019-03-04T07:57:15.204Z,13.17
2019-03-04T07:58:15.169Z,13.55
2019-03-04T07:59:15.176Z,13.46
2019-03-04T08:00:15.191Z,13.55
2019-03-04T08:01:15.183Z,13.61
2019-03-04T08:02:15.207Z,13.80
2019-03-04T08:03:15.186Z,13.84
2019-03-04T08:04:15.188Z,13.67
2019-03-04T08:05:15.191Z,13.58
2019-03-04T08:06:15.196Z,13.84
2019-03-04T08:07:15.227Z,13.62
2019-03-04T08:08:15.207Z,13.77
2019-03-04T08:09:15.208Z,13.91
2019-03-04T08:10:15.209Z,14.04
2019-03-04T08:11:15.217Z,13.81
2019-03-04T08:12:15.251Z,13.99
2019-03-04T08:13:15.228Z,14.43
2019-03-04T08:14:15.232Z,14.34
2019-03-04T08:15:15.231Z,14.46
2019-03-04T08:16:15.236Z,14.53
2019-03-04T08:17:15.242Z,14.54
2019-03-04T08:18:15.280Z,14.25
2019-03-04T08:19:15.252Z,14.17
2019-03-04T08:20:15.262Z,14.10
2019-03-04T08:21:15.264Z,14.32
2019-03-04T08:22:15.267Z,13.91
2019-03-04T08:23:15.305Z,13.61
2019-03-04T08:24:15.272Z,13.65
2019-03-04T08:25:15.285Z,13.49
2019-03-04T08:26:15.292Z,13.95
2019-03-04T08:27:15.293Z,13.73
2019-03-04T08:28:15.327Z,14.20
2019-03-04T08:29:15.307Z,14.09
2019-03-04T08:30:15.363Z,14.20
2019-03-04T08:31:15.316Z,14.25
2019-03-04T08:32:15.317Z,13.99
2019-03-04T08:33:15.349Z,13.63
2019-03-04T08:34:15.324Z,13.61
2019-03-04T08:35:15.331Z,13.36
2019-03-04T08:36:15.332Z,13.37
2019-03-04T08:37:15.337Z,13.29
2019-03-04T08:38:15.367Z,13.15
2019-03-04T08:39:15.374Z,13.06
2019-03-04T08:40:15.351Z,13.18
2019-03-04T08:41:15.400Z,13.22
2019-03-04T08:42:15.353Z,13.21
2019-03-04T08:43:15.382Z,13.06
2019-03-04T08:44:15.366Z,13.17
2019-03-04T08:45:15.356Z,13.20
2019-03-04T08:46:15.361Z,13.24
2019-03-04T08:47:15.361Z,13.27
2019-03-04T08:48:15.386Z,13.36
2019-03-04T08:49:15.367Z,13.38
2019-03-04T08:50:15.883Z,13.41
2019-03-04T08:51:15.368Z,13.52
2019-03-04T08:52:15.365Z,13.59
2019-03-04T08:53:15.410Z,13.54
2019-03-04T08:54:15.403Z,13.51
2019-03-04T08:55:15.377Z,13.51
2019-03-04T08:56:15.374Z,13.43
2019-03-04T08:57:15.374Z,13.32
2019-03-04T08:58:15.378Z,13.37
2019-03-04T08:59:15.458Z,13.41
2019-03-04T09:00:15.377Z,13.36
2019-03-04T09:01:15.382Z,13.32
2019-03-04T09:02:15.378Z,13.41
2019-03-04T09:03:15.400Z,13.41
2019-03-04T09:04:15.426Z,13.52
2019-03-04T09:05:15.383Z,13.55
2019-03-04T09:06:15.392Z,13.47
2019-03-04T09:07:15.386Z,13.46
2019-03-04T09:08:15.391Z,13.33
2019-03-04T09:09:15.419Z,13.27
2019-03-04T09:10:15.393Z,13.25
2019-03-04T09:11:15.394Z,13.21
2019-03-04T09:12:15.391Z,13.14
2019-03-04T09:13:15.398Z,13.03
2019-03-04T09:14:15.426Z,13.03
2019-03-04T09:15:15.423Z,13.09
2019-03-04T09:16:15.398Z,13.11
2019-03-04T09:17:15.393Z,13.47
2019-03-04T09:18:15.402Z,13.65
2019-03-04T09:19:15.425Z,13.40
2019-03-04T09:20:15.397Z,13.22
2019-03-04T09:21:15.428Z,13.21
2019-03-04T09:22:15.394Z,13.37
2019-03-04T09:23:15.404Z,13.67
2019-03-04T09:24:15.453Z,13.91
2019-03-04T09:25:15.407Z,14.31
2019-03-04T09:26:15.403Z,13.96
2019-03-04T09:27:15.407Z,14.04
2019-03-04T09:28:15.418Z,14.12
2019-03-04T09:29:15.444Z,14.43
2019-03-04T09:30:15.449Z,14.60
2019-03-04T09:31:15.432Z,14.53
2019-03-04T09:32:15.419Z,14.56
2019-03-04T09:33:15.424Z,14.72
2019-03-04T09:34:15.463Z,15.15
2019-03-04T09:35:15.440Z,15.21
2019-03-04T09:36:15.435Z,14.81
2019-03-04T09:37:15.449Z,14.53
2019-03-04T09:38:15.449Z,14.94
2019-03-04T09:39:15.476Z,15.33
2019-03-04T09:40:15.487Z,15.38
2019-03-04T09:41:15.464Z,14.68
2019-03-04T09:42:15.470Z,14.37
2019-03-04T09:43:15.478Z,14.16
2019-03-04T09:44:15.509Z,14.38
2019-03-04T09:45:15.486Z,14.46
2019-03-04T09:46:15.497Z,14.46
2019-03-04T09:47:16.389Z,14.78
2019-03-04T09:48:15.509Z,14.72
2019-03-04T09:49:15.516Z,14.52
2019-03-04T09:50:15.579Z,14.68
2019-03-04T09:51:24.053Z,14.72
2019-03-04T09:52:15.534Z,14.84
2019-03-04T09:53:15.535Z,14.83
2019-03-04T09:54:15.534Z,15.39
2019-03-04T09:55:15.568Z,15.30
2019-03-04T09:56:15.561Z,15.36
2019-03-04T09:57:15.614Z,15.43
2019-03-04T09:58:15.581Z,14.68
2019-03-04T09:59:15.586Z,14.44
2019-03-04T10:00:15.608Z,14.42
2019-03-04T10:01:15.651Z,14.60
2019-03-04T10:02:15.589Z,15.13
2019-03-04T10:03:15.618Z,14.91
2019-03-04T10:04:15.613Z,14.98
2019-03-04T10:05:15.652Z,14.91
2019-03-04T10:06:15.640Z,15.13
2019-03-04T10:07:15.665Z,14.68
2019-03-04T10:08:15.691Z,14.94
2019-03-04T10:09:15.651Z,15.08
2019-03-04T10:10:16.071Z,14.86
2019-03-04T10:11:15.665Z,15.03
2019-03-04T10:12:15.670Z,15.05
2019-03-04T10:13:15.686Z,14.74
2019-03-04T10:14:15.703Z,14.75
2019-03-04T10:15:15.741Z,14.75
2019-03-04T10:16:18.717Z,14.84
2019-03-04T10:17:15.719Z,14.94
2019-03-04T10:18:15.785Z,15.17
2019-03-04T10:19:15.739Z,15.38
2019-03-04T10:20:15.774Z,14.86
2019-03-04T10:21:15.753Z,14.81
2019-03-04T10:22:16.403Z,15.15
2019-03-04T10:23:15.763Z,14.99
2019-03-04T10:24:15.771Z,14.91
2019-03-04T10:25:15.823Z,14.37
2019-03-04T10:26:22.616Z,14.39
2019-03-04T10:27:15.794Z,14.42
2019-03-04T10:28:15.808Z,14.43
2019-03-04T10:29:15.820Z,14.62
2019-03-04T10:30:15.899Z,14.94
2019-03-04T10:31:15.864Z,14.80
2019-03-04T10:32:15.835Z,14.75
2019-03-04T10:33:15.846Z,14.94
2019-03-04T10:34:15.857Z,15.21
2019-03-04T10:35:15.880Z,15.38
2019-03-04T10:36:15.919Z,15.33
2019-03-04T10:37:15.930Z,15.54
2019-03-04T10:38:22.500Z,15.11
2019-03-04T10:39:17.799Z,15.02
2019-03-04T10:40:15.910Z,14.84
2019-03-04T10:41:15.930Z,14.67
2019-03-04T10:42:15.939Z,14.84
2019-03-04T10:43:15.913Z,15.15
2019-03-04T10:44:15.938Z,15.54
2019-03-04T10:45:18.095Z,15.72
2019-03-04T10:46:15.962Z,15.85
2019-03-04T10:47:15.942Z,15.96
2019-03-04T10:48:16.002Z,16.38
2019-03-04T10:49:16.008Z,16.31
2019-03-04T10:50:15.964Z,16.53
2019-03-04T10:51:16.027Z,16.06
2019-03-04T10:52:15.983Z,15.33
2019-03-04T10:53:15.997Z,15.74
2019-03-04T10:54:16.009Z,15.61
2019-03-04T10:55:16.015Z,15.06
2019-03-04T10:56:16.058Z,15.31
2019-03-04T10:57:16.046Z,15.64
2019-03-04T10:58:16.039Z,16.07
2019-03-04T10:59:16.056Z,16.49
2019-03-04T11:00:16.065Z,16.73
2019-03-04T11:01:16.099Z,16.25
2019-03-04T11:02:16.115Z,16.50
2019-03-04T11:03:16.100Z,16.44
2019-03-04T11:04:16.103Z,15.67
2019-03-04T11:05:16.118Z,15.05
2019-03-04T11:06:16.151Z,15.11
2019-03-04T11:07:16.159Z,15.12
2019-03-04T11:08:16.133Z,15.12
2019-03-04T11:09:16.142Z,15.09
2019-03-04T11:10:16.149Z,15.30
2019-03-04T11:11:16.157Z,15.46
2019-03-04T11:12:16.194Z,15.30
2019-03-04T11:13:16.439Z,14.87
2019-03-04T11:14:16.175Z,14.44
2019-03-04T11:15:16.186Z,14.49
2019-03-04T11:16:16.190Z,14.49
2019-03-04T11:17:16.226Z,14.52
2019-03-04T11:18:16.198Z,14.47
2019-03-04T11:19:16.202Z,14.64
2019-03-04T11:20:16.214Z,14.50
2019-03-04T11:21:16.925Z,14.16
2019-03-04T11:22:16.250Z,14.06
2019-03-04T11:23:16.233Z,13.94
2019-03-04T11:24:16.239Z,14.12
2019-03-04T11:25:16.237Z,14.09
2019-03-04T11:26:16.234Z,13.95
2019-03-04T11:27:16.278Z,14.35
2019-03-04T11:28:16.272Z,14.53
2019-03-04T11:29:16.265Z,14.80
2019-03-04T11:30:16.918Z,15.28
2019-03-04T11:31:16.357Z,15.63
2019-03-04T11:32:16.289Z,15.94
2019-03-04T11:33:16.296Z,16.09
2019-03-04T11:34:16.296Z,15.26
2019-03-04T11:35:16.275Z,15.41
2019-03-04T11:36:16.280Z,15.36
2019-03-04T11:37:16.314Z,15.64
2019-03-04T11:38:16.288Z,15.74
2019-03-04T11:39:16.295Z,15.31
2019-03-04T11:40:16.346Z,15.21
2019-03-04T11:41:16.307Z,15.19
2019-03-04T11:42:16.321Z,15.31
2019-03-04T11:43:16.355Z,15.06
2019-03-04T11:44:16.337Z,14.32
2019-03-04T11:45:16.341Z,13.99
2019-03-04T11:46:16.348Z,13.91
2019-03-04T11:47:16.351Z,13.91
2019-03-04T11:48:16.419Z,13.67
2019-03-04T11:49:16.372Z,13.65
2019-03-04T11:50:16.383Z,13.54
2019-03-04T11:51:16.372Z,13.58
2019-03-04T11:52:16.384Z,13.56
2019-03-04T11:53:16.420Z,13.52
2019-03-04T11:54:16.403Z,13.37
2019-03-04T11:55:16.397Z,13.27
2019-03-04T11:56:16.396Z,13.24
2019-03-04T11:57:16.396Z,13.07
2019-03-04T11:58:16.440Z,13.09
2019-03-04T11:59:16.432Z,13.18
2019-03-04T12:00:16.409Z,13.12
2019-03-04T12:01:16.417Z,13.09
2019-03-04T12:02:16.414Z,13.04
2019-03-04T12:03:16.441Z,13.02
2019-03-04T12:04:16.421Z,13.11
2019-03-04T12:05:16.417Z,13.07
2019-03-04T12:06:16.423Z,13.04
2019-03-04T12:07:16.424Z,12.95
2019-03-04T12:08:16.428Z,12.81
2019-03-04T12:09:16.460Z,12.71
2019-03-04T12:10:16.425Z,12.77
2019-03-04T12:11:16.433Z,12.71
2019-03-04T12:12:16.429Z,12.54
2019-03-04T12:13:16.431Z,12.42
2019-03-04T12:14:16.465Z,12.48
2019-03-04T12:15:16.432Z,12.52
2019-03-04T12:16:16.430Z,12.41
2019-03-04T12:17:16.443Z,12.54
2019-03-04T12:18:16.439Z,12.59
2019-03-04T12:19:16.463Z,12.52
2019-03-04T12:20:16.473Z,12.39
2019-03-04T12:21:16.444Z,12.38
2019-03-04T12:22:16.442Z,12.24
2019-03-04T12:23:16.441Z,12.39
2019-03-04T12:24:16.474Z,12.26
2019-03-04T12:25:16.443Z,12.15
2019-03-04T12:26:18.480Z,12.13
2019-03-04T12:27:16.442Z,12.12
2019-03-04T12:28:16.446Z,12.01
2019-03-04T12:29:16.475Z,11.85
2019-03-04T12:30:16.481Z,11.78
2019-03-04T12:31:16.446Z,11.75
2019-03-04T12:32:16.457Z,11.72
2019-03-04T12:33:16.460Z,11.70
2019-03-04T12:34:24.375Z,11.67
2019-03-04T12:35:16.454Z,11.54
2019-03-04T12:36:16.452Z,11.47
2019-03-04T12:37:16.448Z,11.53
2019-03-04T12:38:17.426Z,11.50
2019-03-04T12:39:16.484Z,11.47
2019-03-04T12:40:16.448Z,11.70
2019-03-04T12:41:16.449Z,11.68
2019-03-04T12:42:16.451Z,11.85
2019-03-04T12:43:16.452Z,11.75
2019-03-04T12:44:16.481Z,11.82
2019-03-04T12:45:16.447Z,11.85
2019-03-04T12:46:16.457Z,11.93
2019-03-04T12:47:16.549Z,11.93
2019-03-04T12:48:16.443Z,12.09
2019-03-04T12:49:16.480Z,11.96
2019-03-04T12:50:16.480Z,11.97
2019-03-04T12:51:23.163Z,12.13
2019-03-04T12:52:16.448Z,12.33
2019-03-04T12:53:16.452Z,12.39
2019-03-04T12:54:16.480Z,12.51